メインページ
METAR-TAF:

METAR-TAF

空港 :

アルトゥーロ・メリノ・ベニテス国際空港

サンティアゴ, チリ

緯度: 33-23S, 経度: 070-47W, 海抜: 475m

現時点の気象観測

当レポートは29分前の06:00(UTC)に作成
の風 5kt
気温 9°C
湿度 71%
気圧 1018 hPa
視程10km以上
1,500メートル以下は雲なし、積乱雲なし

METAR: SCEL 200600Z 17005KT CAVOK 09/04 Q1018 NOSIG

時間: 03:29 (06:29 UTC)

予報

当レポートは2時間19分前の04:10(UTC)に作成
予報は20日の 06時(UTC)から 21日の 06時(UTC)まで有効
南/南東の風 5kt
視程10km以上
1,500メートル以下は雲なし、積乱雲なし
20日の 09時(UTC)から 20日の 13時(UTC)まで一時的に
変向風 2kt
視程: 7000m
20日の 14時(UTC)から 20日の 16時(UTC)まで徐々に
の風 6kt
20日の 19時(UTC)から 20日の 21時(UTC)まで徐々に
南/南西の風 15kt
21日の 00時(UTC)から 21日の 02時(UTC)まで徐々に
の風 6kt

TAF: SCEL 200410Z 2006/2106 16005KT CAVOK TX24/2019Z TN07/2011Z TEMPO 2009/2013 VRB02KT 7000 NSC BECMG 2014/2016 18006KT BECMG 2019/2021 21015KT BECMG 2100/2102 17006KT

4,000以上の空港の気象観測と天気予報(METAR報とTAF報)

利用可能な観測所は地図上に黄色い丸と赤い丸で示す。

丸の上にカーソルを重ねると観測所名を参照できる。

次にクリックすると気象観測と天気予報を参照できる。

マップの切り替え:黒色「×」印の緑ボタンをクリックして拡大、「-」印の緑ボタンをクリックして縮小、緑色の三角印をクリックして隣りの地図に切り替え


METAR-TAF: